Time;durP1;ratioP1;P1;durP2;ratioP2;P2;SDS_P1;SDS_P2;PMS_P1;PMS_P2;Temp;Humidity;BMP_temperature;BMP_pressure;BME280_temperature;BME280_humidity;BME280_pressure;Samples;Min_cycle;Max_cycle;Signal;HPM_P1;HPM_P2
2022/07/24 00:01:02;;;;;;;1999.90;999.90;;;15.00;99.90;;;;;;5094316;28;20477;-73
2022/07/24 00:03:29;;;;;;;1999.90;999.90;;;15.20;99.90;;;;;;5092828;28;20529;-76
2022/07/24 00:05:56;;;;;;;1999.90;999.90;;;15.10;99.90;;;;;;5094135;28;20517;-76
2022/07/24 00:08:22;;;;;;;1999.90;999.90;;;15.10;99.90;;;;;;5073717;28;20475;-76
2022/07/24 00:10:49;;;;;;;1999.90;999.90;;;14.90;99.90;;;;;;5073293;28;20449;-76
2022/07/24 00:13:17;;;;;;;1999.90;999.90;;;15.00;99.90;;;;;;5073679;28;20995;-75
2022/07/24 00:15:43;;;;;;;1999.90;999.90;;;15.00;99.90;;;;;;5074384;28;20473;-75
2022/07/24 00:18:10;;;;;;;1999.90;999.90;;;15.10;99.90;;;;;;5093193;28;20440;-75
2022/07/24 00:20:37;;;;;;;1999.90;999.90;;;15.00;99.90;;;;;;5092474;28;20464;-76
2022/07/24 00:23:04;;;;;;;1999.90;999.90;;;15.00;99.90;;;;;;5089775;28;20579;-75
2022/07/24 00:25:30;;;;;;;1999.90;999.90;;;14.90;99.90;;;;;;5077937;28;20534;-76
2022/07/24 00:27:57;;;;;;;1999.90;999.90;;;14.80;99.90;;;;;;5079518;28;20461;-75
2022/07/24 00:30:25;;;;;;;1999.90;999.90;;;14.60;99.90;;;;;;5075003;28;20457;-76
2022/07/24 00:32:52;;;;;;;1999.90;999.90;;;14.60;99.90;;;;;;5079133;28;20450;-76
2022/07/24 00:35:18;;;;;;;1999.90;999.90;;;14.60;99.90;;;;;;5090841;22;20509;-69
2022/07/24 00:37:46;;;;;;;1999.90;999.90;;;14.60;99.90;;;;;;5053553;28;20458;-68
2022/07/24 00:40:13;;;;;;;1999.90;999.90;;;14.60;99.90;;;;;;5056519;28;20489;-69
2022/07/24 00:42:39;;;;;;;1999.90;999.90;;;14.60;99.90;;;;;;5050596;28;20482;-69
2022/07/24 00:45:07;;;;;;;1999.90;999.90;;;14.50;99.90;;;;;;5049694;28;20479;-69
2022/07/24 00:47:35;;;;;;;1999.90;999.90;;;14.50;99.90;;;;;;5033243;28;20520;-69
2022/07/24 00:50:04;;;;;;;1999.90;999.90;;;14.50;99.90;;;;;;5030923;28;20517;-69
2022/07/24 00:52:31;;;;;;;1999.90;999.90;;;14.50;99.90;;;;;;5029794;28;20460;-69
2022/07/24 00:54:57;;;;;;;1999.90;999.90;;;14.40;99.90;;;;;;5035113;28;20483;-67
2022/07/24 00:57:24;;;;;;;1999.90;999.90;;;14.20;99.90;;;;;;5034165;28;20902;-67
2022/07/24 00:59:51;;;;;;;1999.90;999.90;;;14.10;99.90;;;;;;5034086;28;20467;-67
2022/07/24 01:02:17;;;;;;;1999.90;999.90;;;14.00;99.90;;;;;;5036968;28;20482;-67
2022/07/24 01:04:45;;;;;;;1999.90;999.90;;;14.10;99.90;;;;;;5029702;28;20463;-67
2022/07/24 01:07:12;;;;;;;1999.90;999.90;;;14.00;99.90;;;;;;5037545;28;20972;-67
2022/07/24 01:09:39;;;;;;;1999.90;999.90;;;13.80;99.90;;;;;;5031623;28;20514;-65
2022/07/24 01:12:06;;;;;;;1999.90;999.90;;;13.80;99.90;;;;;;5034607;28;20509;-67
2022/07/24 01:14:33;;;;;;;1999.90;999.90;;;13.80;99.90;;;;;;5029843;28;20451;-66
2022/07/24 01:17:00;;;;;;;1999.90;999.90;;;13.80;99.90;;;;;;5028796;28;20501;-67
2022/07/24 01:19:27;;;;;;;1999.90;999.90;;;13.80;99.90;;;;;;5042119;28;20459;-67
2022/07/24 01:21:55;;;;;;;1999.90;999.90;;;13.80;99.90;;;;;;5029051;28;20483;-67
2022/07/24 01:24:22;;;;;;;1999.90;999.90;;;13.70;99.90;;;;;;5033881;28;21020;-67
2022/07/24 01:26:49;;;;;;;1999.90;999.90;;;13.80;99.90;;;;;;5034234;28;20515;-66
2022/07/24 01:29:16;;;;;;;1999.90;999.90;;;14.00;99.90;;;;;;5034866;28;20523;-67
2022/07/24 01:31:43;;;;;;;1999.90;999.90;;;13.80;99.90;;;;;;5037833;28;20454;-66
2022/07/24 01:34:10;;;;;;;1999.90;999.90;;;13.60;99.90;;;;;;5033149;28;20459;-66
2022/07/24 01:36:36;;;;;;;1999.90;999.90;;;13.50;99.90;;;;;;5028508;28;20483;-66
2022/07/24 01:39:05;;;;;;;1999.90;999.90;;;13.30;99.90;;;;;;5029207;28;20451;-67
2022/07/24 01:41:31;;;;;;;1999.90;999.90;;;13.30;99.90;;;;;;5037513;28;20479;-67
2022/07/24 01:43:58;;;;;;;1999.90;999.90;;;13.40;99.90;;;;;;5033214;28;20512;-67
2022/07/24 01:46:25;;;;;;;1999.90;999.90;;;13.40;99.90;;;;;;5038350;28;20529;-66
2022/07/24 01:48:52;;;;;;;1999.90;999.90;;;13.60;99.90;;;;;;5028515;28;20458;-67
2022/07/24 01:51:19;;;;;;;1999.90;999.90;;;13.80;99.90;;;;;;5034572;28;20459;-66
2022/07/24 01:53:45;;;;;;;1999.90;999.90;;;13.70;99.90;;;;;;5027404;28;20518;-67
2022/07/24 01:56:13;;;;;;;1999.90;999.90;;;13.70;99.90;;;;;;5036797;28;21003;-67
2022/07/24 01:58:40;;;;;;;1999.90;999.90;;;13.80;99.90;;;;;;5034346;28;20508;-67
2022/07/24 02:01:07;;;;;;;1999.90;999.90;;;13.90;99.90;;;;;;5029905;28;20490;-67
2022/07/24 02:03:33;;;;;;;1999.90;999.90;;;14.00;99.90;;;;;;5031547;28;20545;-67
2022/07/24 02:06:00;;;;;;;1999.90;999.90;;;14.20;99.90;;;;;;5028241;28;20491;-67
2022/07/24 02:08:27;;;;;;;1999.90;999.90;;;14.20;99.90;;;;;;5037183;28;20520;-69
2022/07/24 02:10:54;;;;;;;1999.90;999.90;;;14.30;99.90;;;;;;5036647;28;20468;-70
2022/07/24 02:13:22;;;;;;;1999.90;999.90;;;14.30;99.90;;;;;;5034345;28;20550;-69
2022/07/24 02:15:48;;;;;;;1999.90;999.90;;;14.20;99.90;;;;;;5037983;28;20481;-67
2022/07/24 02:18:15;;;;;;;1999.90;999.90;;;14.10;99.90;;;;;;5030120;28;20467;-66
2022/07/24 02:20:42;;;;;;;1999.90;999.90;;;14.00;99.90;;;;;;5039252;28;20885;-66
2022/07/24 02:23:08;;;;;;;1999.90;999.90;;;13.90;99.90;;;;;;5032767;28;20532;-67
2022/07/24 02:25:35;;;;;;;1999.90;999.90;;;13.80;99.90;;;;;;5031429;28;20979;-68
2022/07/24 02:28:01;;;;;;;1999.90;999.90;;;13.80;99.90;;;;;;5028423;28;20520;-67
2022/07/24 02:30:29;;;;;;;1999.90;999.90;;;13.80;99.90;;;;;;5033111;28;20524;-67
2022/07/24 02:32:56;;;;;;;1999.90;999.90;;;13.90;99.90;;;;;;5035102;28;20509;-68
2022/07/24 02:35:23;;;;;;;1999.90;999.90;;;13.80;99.90;;;;;;5033272;28;20499;-67
2022/07/24 02:37:49;;;;;;;1999.90;999.90;;;13.80;99.90;;;;;;5035670;28;20466;-67
2022/07/24 02:40:16;;;;;;;1999.90;999.90;;;13.80;99.90;;;;;;5038211;28;20521;-68
2022/07/24 02:42:43;;;;;;;1999.90;999.90;;;13.80;99.90;;;;;;5035748;28;20478;-68
2022/07/24 02:45:11;;;;;;;1999.90;999.90;;;13.80;99.90;;;;;;5037195;28;20556;-68
2022/07/24 02:47:48;;;;;;;1999.90;999.90;;;13.80;99.90;;;;;;5037207;28;20523;-68
2022/07/24 02:50:14;;;;;;;1999.90;999.90;;;13.80;99.90;;;;;;5037266;28;20467;-67
2022/07/24 02:52:41;;;;;;;1999.90;999.90;;;13.80;99.90;;;;;;5039317;28;20515;-69
2022/07/24 02:55:09;;;;;;;1999.90;999.90;;;13.60;99.90;;;;;;5037001;28;20545;-68
2022/07/24 02:57:36;;;;;;;1999.90;999.90;;;13.40;99.90;;;;;;5034498;28;20879;-68
2022/07/24 03:00:03;;;;;;;1999.90;999.90;;;13.40;99.90;;;;;;5049406;28;20788;-68
2022/07/24 03:02:30;;;;;;;1999.90;999.90;;;13.40;99.90;;;;;;5052992;28;20536;-68
2022/07/24 03:04:58;;;;;;;1999.90;999.90;;;13.30;99.90;;;;;;5034132;28;20491;-68
2022/07/24 03:07:24;;;;;;;1999.90;999.90;;;13.30;99.90;;;;;;5039942;28;20516;-68
2022/07/24 03:09:51;;;;;;;1999.90;999.90;;;13.20;99.90;;;;;;5038215;28;20455;-68
2022/07/24 03:12:17;;;;;;;1999.90;999.90;;;13.30;99.90;;;;;;5035881;28;20504;-68
2022/07/24 03:14:44;;;;;;;1999.90;999.90;;;13.30;99.90;;;;;;5030153;28;20471;-69
2022/07/24 03:17:11;;;;;;;1999.90;999.90;;;13.50;99.90;;;;;;5031055;28;20882;-68
2022/07/24 03:19:38;;;;;;;1999.90;999.90;;;13.40;99.90;;;;;;5034733;28;20467;-68
2022/07/24 03:22:06;;;;;;;1999.90;999.90;;;13.30;99.90;;;;;;5038158;28;21062;-68
2022/07/24 03:24:33;;;;;;;1999.90;999.90;;;13.30;99.90;;;;;;5032835;28;20513;-68
2022/07/24 03:26:59;;;;;;;1999.90;999.90;;;13.30;99.90;;;;;;5037327;28;20470;-68
2022/07/24 03:29:26;;;;;;;1999.90;999.90;;;13.40;99.90;;;;;;5041134;28;20497;-68
2022/07/24 03:31:53;;;;;;;1999.90;999.90;;;13.40;99.90;;;;;;5038251;28;20459;-68
2022/07/24 03:34:20;;;;;;;1999.90;999.90;;;13.30;99.90;;;;;;5036831;28;21025;-68
2022/07/24 03:36:46;;;;;;;1999.90;999.90;;;13.20;99.90;;;;;;5039058;28;20995;-68
2022/07/24 03:39:14;;;;;;;1999.90;999.90;;;13.20;99.90;;;;;;5043894;28;20466;-68
2022/07/24 03:41:41;;;;;;;1999.90;999.90;;;13.20;99.90;;;;;;5036925;28;20502;-68
2022/07/24 03:44:08;;;;;;;1999.90;999.90;;;13.00;99.90;;;;;;5031496;28;20505;-68
2022/07/24 03:46:34;;;;;;;1999.90;999.90;;;13.10;99.90;;;;;;5031638;28;20487;-66
2022/07/24 03:49:01;;;;;;;1999.90;999.90;;;13.10;99.90;;;;;;5035867;28;20964;-66
2022/07/24 03:51:27;;;;;;;1999.90;999.90;;;13.10;99.90;;;;;;5040308;28;20505;-68
2022/07/24 03:53:54;;;;;;;1999.90;999.90;;;13.10;99.90;;;;;;5029946;28;20455;-66
2022/07/24 03:56:22;;;;;;;1999.90;999.90;;;13.10;99.90;;;;;;5034755;28;20941;-68
2022/07/24 03:58:49;;;;;;;1999.90;999.90;;;13.30;99.90;;;;;;5039269;28;20454;-69
2022/07/24 04:01:16;;;;;;;1999.90;999.90;;;13.40;99.90;;;;;;5044973;28;20463;-68
2022/07/24 04:03:42;;;;;;;1999.90;999.90;;;13.50;99.90;;;;;;5042391;28;20513;-68
2022/07/24 04:06:09;;;;;;;1999.90;999.90;;;13.50;99.90;;;;;;5037139;28;20486;-68
2022/07/24 04:08:35;;;;;;;1999.90;999.90;;;13.70;99.90;;;;;;5036517;28;20466;-68
2022/07/24 04:11:02;;;;;;;1999.90;999.90;;;13.70;99.90;;;;;;5040725;28;20529;-69
2022/07/24 04:13:31;;;;;;;1999.90;999.90;;;13.90;99.90;;;;;;5043499;28;20512;-69
2022/07/24 04:15:58;;;;;;;1999.90;999.90;;;13.90;99.90;;;;;;5041459;28;20491;-68
2022/07/24 04:18:26;;;;;;;1999.90;999.90;;;13.90;99.90;;;;;;5034302;28;20478;-69
2022/07/24 04:20:52;;;;;;;1999.90;999.90;;;14.00;99.90;;;;;;5029874;28;20537;-68
2022/07/24 04:23:19;;;;;;;1999.90;999.90;;;14.10;99.90;;;;;;5042169;28;20532;-69
2022/07/24 04:25:46;;;;;;;1999.90;999.90;;;14.00;99.90;;;;;;5043914;28;20482;-69
2022/07/24 04:28:13;;;;;;;1999.90;999.90;;;14.20;99.90;;;;;;5042350;28;20529;-68
2022/07/24 04:30:41;;;;;;;1999.90;999.90;;;14.30;99.90;;;;;;5041881;28;20507;-69
2022/07/24 04:33:07;;;;;;;1999.90;999.90;;;14.40;99.90;;;;;;5052179;28;20442;-68
2022/07/24 04:35:34;;;;;;;1999.90;999.90;;;14.50;99.90;;;;;;5052305;28;20478;-68
2022/07/24 04:38:01;;;;;;;1999.90;999.90;;;14.60;99.90;;;;;;5053100;28;20496;-68
2022/07/24 04:40:28;;;;;;;1999.90;999.90;;;14.80;99.90;;;;;;5053089;28;20454;-68
2022/07/24 04:42:54;;;;;;;1999.90;999.90;;;15.20;99.90;;;;;;5039229;28;20491;-68
2022/07/24 04:45:21;;;;;;;1999.90;999.90;;;15.60;99.90;;;;;;5033166;28;20509;-69
2022/07/24 04:47:49;;;;;;;1999.90;999.90;;;16.10;99.90;;;;;;5032928;28;20997;-68
2022/07/24 04:50:16;;;;;;;1999.90;999.90;;;16.60;99.90;;;;;;5032979;28;20524;-68
2022/07/24 04:52:43;;;;;;;1999.90;999.90;;;17.00;99.90;;;;;;5033190;28;20447;-69
2022/07/24 04:55:10;;;;;;;1999.90;999.90;;;17.40;99.90;;;;;;5030048;28;20487;-68
2022/07/24 04:57:37;;;;;;;1999.90;999.90;;;17.70;99.90;;;;;;5032127;28;20448;-68
2022/07/24 05:00:07;;;;;;;1999.90;999.90;;;18.10;99.90;;;;;;5032925;28;20482;-69
2022/07/24 05:02:34;;;;;;;1999.90;999.90;;;18.20;99.90;;;;;;5032919;28;20531;-68
2022/07/24 05:05:02;;;;;;;1999.90;999.90;;;18.40;99.90;;;;;;5032920;28;20474;-68
2022/07/24 05:07:28;;;;;;;1999.90;999.90;;;18.30;99.90;;;;;;5031427;28;20471;-68
2022/07/24 05:09:55;;;;;;;1999.90;999.90;;;18.70;99.90;;;;;;5032648;28;20478;-68
2022/07/24 05:12:22;;;;;;;1999.90;999.90;;;19.00;99.90;;;;;;5032738;28;20451;-69
2022/07/24 05:14:48;;;;;;;1999.90;999.90;;;19.00;99.90;;;;;;5032562;28;20948;-68
2022/07/24 05:17:15;;;;;;;1999.90;999.90;;;19.00;99.90;;;;;;5032387;28;20598;-69
2022/07/24 05:19:42;;;;;;;1999.90;999.90;;;18.90;99.90;;;;;;5031707;28;20459;-68
2022/07/24 05:22:10;;;;;;;1999.90;999.90;;;19.10;99.90;;;;;;5032655;28;20447;-68
2022/07/24 05:24:37;;;;;;;1999.90;999.90;;;19.00;99.90;;;;;;5032332;28;20842;-68
2022/07/24 05:27:04;;;;;;;1999.90;999.90;;;19.00;99.90;;;;;;5032257;28;20466;-69
2022/07/24 05:29:30;;;;;;;1999.90;999.90;;;18.70;99.90;;;;;;5032473;28;20458;-68
2022/07/24 05:31:57;;;;;;;1999.90;999.90;;;18.90;99.90;;;;;;5031102;28;20467;-69
2022/07/24 05:34:24;;;;;;;1999.90;999.90;;;19.20;99.90;;;;;;5032072;28;20862;-69
2022/07/24 05:36:51;;;;;;;1999.90;999.90;;;19.50;99.90;;;;;;5033010;28;20475;-68
2022/07/24 05:39:19;;;;;;;1999.90;999.90;;;19.70;99.90;;;;;;5033714;28;20492;-68
2022/07/24 05:41:46;;;;;;;1999.90;999.90;;;19.80;99.90;;;;;;5034240;28;20447;-69
2022/07/24 05:44:12;;;;;;;1999.90;999.90;;;19.90;99.90;;;;;;5031966;28;20533;-68
2022/07/24 05:46:39;;;;;;;1999.90;999.90;;;20.20;99.90;;;;;;5033258;28;20517;-68
2022/07/24 05:49:05;;;;;;;1999.90;999.90;;;20.30;99.90;;;;;;5033805;28;20450;-68
2022/07/24 05:51:32;;;;;;;1999.90;999.90;;;20.40;99.90;;;;;;5033664;28;20437;-68
2022/07/24 05:53:59;;;;;;;1999.90;999.90;;;20.60;99.90;;;;;;5031984;28;20439;-69
2022/07/24 05:56:27;;;;;;;1999.90;999.90;;;20.60;99.90;;;;;;5025133;28;20901;-69
2022/07/24 05:58:53;;;;;;;1999.90;999.90;;;20.70;99.90;;;;;;5032842;28;20446;-69
2022/07/24 06:01:20;;;;;;;1999.90;999.90;;;20.80;99.90;;;;;;5032231;28;20470;-69
2022/07/24 06:03:46;;;;;;;1999.90;999.90;;;21.00;99.90;;;;;;5032202;28;20560;-69
2022/07/24 06:06:13;;;;;;;1999.90;999.90;;;21.00;99.90;;;;;;5030636;28;20487;-69
2022/07/24 06:08:40;;;;;;;1999.90;999.90;;;21.10;99.90;;;;;;5031272;28;20505;-69
2022/07/24 06:11:07;;;;;;;1999.90;999.90;;;21.10;99.90;;;;;;5032089;28;20500;-68
2022/07/24 06:13:34;;;;;;;1999.90;999.90;;;21.30;99.90;;;;;;5031860;28;20497;-69
2022/07/24 06:16:01;;;;;;;1999.90;999.90;;;21.30;99.90;;;;;;5031733;28;20517;-69
2022/07/24 06:18:28;;;;;;;1999.90;999.90;;;21.40;99.90;;;;;;5030790;28;20462;-69
2022/07/24 06:20:55;;;;;;;1999.90;999.90;;;21.60;99.90;;;;;;5031490;28;20903;-69
2022/07/24 06:23:21;;;;;;;1999.90;999.90;;;21.90;99.90;;;;;;5011800;28;20479;-68
2022/07/24 06:25:48;;;;;;;1999.90;999.90;;;22.30;99.90;;;;;;5011906;28;20563;-69
2022/07/24 06:28:16;;;;;;;1999.90;999.90;;;22.30;99.90;;;;;;5014134;28;20444;-69
2022/07/24 06:30:44;;;;;;;1999.90;999.90;;;22.00;99.90;;;;;;5016249;28;21034;-68
2022/07/24 06:33:10;;;;;;;1999.90;999.90;;;22.30;99.90;;;;;;5032013;28;20467;-68
2022/07/24 06:35:37;;;;;;;1999.90;999.90;;;22.80;99.90;;;;;;5050844;23;20498;-76
2022/07/24 06:38:04;;;;;;;1999.90;999.90;;;23.20;99.90;;;;;;5050309;28;20462;-74
2022/07/24 06:40:30;;;;;;;1999.90;999.90;;;23.20;99.90;;;;;;5052316;28;20482;-74
2022/07/24 06:42:57;;;;;;;1999.90;999.90;;;23.40;99.70;;;;;;5051817;28;20516;-73
2022/07/24 06:45:24;;;;;;;1999.90;999.90;;;23.50;99.70;;;;;;5047025;28;20471;-74
2022/07/24 06:47:52;;;;;;;1999.90;999.90;;;23.50;99.60;;;;;;5031715;28;20452;-74
2022/07/24 06:50:18;;;;;;;1999.90;999.90;;;23.50;99.20;;;;;;5012760;28;20448;-74
2022/07/24 06:52:46;;;;;;;1999.90;999.90;;;23.40;99.20;;;;;;5012454;28;20479;-74
2022/07/24 06:55:12;;;;;;;1999.90;999.90;;;23.40;99.70;;;;;;5012305;28;20490;-73
2022/07/24 06:57:39;;;;;;;1999.90;999.90;;;23.70;98.90;;;;;;5030522;28;20517;-74
2022/07/24 07:00:09;;;;;;;1999.90;999.90;;;24.00;99.00;;;;;;5014081;28;20502;-74
2022/07/24 07:02:35;;;;;;;1999.90;999.90;;;23.90;98.70;;;;;;5012344;28;20448;-73
2022/07/24 07:05:04;;;;;;;1999.90;999.90;;;24.00;98.00;;;;;;5012191;28;20487;-74
2022/07/24 07:07:31;;;;;;;1999.90;999.90;;;24.30;97.80;;;;;;5029587;28;20513;-74
2022/07/24 07:09:57;;;;;;;1999.90;999.90;;;24.30;97.40;;;;;;5015510;28;20458;-74
2022/07/24 07:12:24;;;;;;;1999.90;999.90;;;24.10;97.70;;;;;;5012234;28;20599;-74
2022/07/24 07:14:51;;;;;;;1999.90;999.90;;;24.40;97.70;;;;;;5012022;28;20873;-74
2022/07/24 07:17:17;;;;;;;1999.90;999.90;;;24.70;96.90;;;;;;5026258;28;20537;-74
2022/07/24 07:19:44;;;;;;;1999.90;999.90;;;24.70;96.70;;;;;;5026498;28;20471;-73
2022/07/24 07:22:12;;;;;;;1999.90;999.90;;;24.90;96.20;;;;;;5016028;28;20506;-74
2022/07/24 07:24:39;;;;;;;1999.90;999.90;;;24.90;96.60;;;;;;5015737;28;21107;-74
2022/07/24 07:27:05;;;;;;;1999.90;999.90;;;24.70;96.90;;;;;;5028714;28;20905;-74
2022/07/24 07:29:32;;;;;;;1999.90;999.90;;;24.30;97.20;;;;;;5022383;28;20444;-74
2022/07/24 07:31:59;;;;;;;1999.90;999.90;;;23.50;98.10;;;;;;5015521;28;20510;-74
2022/07/24 07:34:26;;;;;;;1999.90;999.90;;;23.40;99.10;;;;;;5015437;28;20482;-74
2022/07/24 07:36:53;;;;;;;1999.90;999.90;;;23.60;98.50;;;;;;5026835;28;20495;-74
2022/07/24 07:39:21;;;;;;;1999.90;999.90;;;24.00;97.90;;;;;;5023655;28;20938;-74
2022/07/24 07:41:47;;;;;;;1999.90;999.90;;;24.30;97.20;;;;;;5015478;28;20448;-74
2022/07/24 07:44:14;;;;;;;1999.90;999.90;;;24.40;96.60;;;;;;5015321;28;20488;-74
2022/07/24 07:46:41;;;;;;;1999.90;999.90;;;24.40;96.20;;;;;;5024898;28;20482;-74
2022/07/24 07:49:07;;;;;;;1999.90;999.90;;;24.40;96.50;;;;;;5025360;28;20459;-74
2022/07/24 07:51:34;;;;;;;1999.90;999.90;;;24.50;96.10;;;;;;5015542;28;20445;-74
2022/07/24 07:54:01;;;;;;;1999.90;999.90;;;24.40;97.30;;;;;;5015117;28;20502;-74
2022/07/24 07:56:30;;;;;;;1999.90;999.90;;;24.80;95.80;;;;;;5021496;28;20943;-75
2022/07/24 07:58:57;;;;;;;1999.90;999.90;;;24.90;95.40;;;;;;5031227;28;20825;-74
2022/07/24 08:01:24;;;;;;;1999.90;999.90;;;24.90;95.50;;;;;;5014772;28;20894;-74
2022/07/24 08:03:50;;;;;;;1999.90;999.90;;;25.00;95.50;;;;;;5014830;28;20488;-74
2022/07/24 08:06:17;;;;;;;1999.90;999.90;;;25.20;95.20;;;;;;5019732;28;20553;-74
2022/07/24 08:08:44;;;;;;;1999.90;999.90;;;25.30;95.10;;;;;;5033204;28;20952;-74
2022/07/24 08:11:10;;;;;;;1999.90;999.90;;;24.90;95.20;;;;;;5024272;28;20444;-74
2022/07/24 08:13:38;;;;;;;1999.90;999.90;;;25.30;95.10;;;;;;5014766;28;20440;-74
2022/07/24 08:16:05;;;;;;;1999.90;999.90;;;25.30;94.90;;;;;;5018696;28;20487;-74
2022/07/24 08:18:32;;;;;;;1999.90;999.90;;;25.60;94.80;;;;;;5029515;28;20448;-74
2022/07/24 08:20:59;;;;;;;1999.90;999.90;;;26.00;93.60;;;;;;5015043;28;20444;-75
2022/07/24 08:23:26;;;;;;;1999.90;999.90;;;26.30;93.10;;;;;;5014679;28;20452;-75
2022/07/24 08:25:52;;;;;;;1999.90;999.90;;;26.10;93.00;;;;;;5016935;28;20899;-74
2022/07/24 08:28:19;;;;;;;1999.90;999.90;;;25.80;93.50;;;;;;5029903;28;20440;-75
2022/07/24 08:30:47;;;;;;;1999.90;999.90;;;26.00;93.10;;;;;;5013527;28;20444;-75
2022/07/24 08:33:13;;;;;;;1999.90;999.90;;;26.50;92.60;;;;;;5013655;28;20456;-72
2022/07/24 08:35:40;;;;;;;1999.90;999.90;;;25.80;92.60;;;;;;5014232;28;20472;-75
2022/07/24 08:38:07;;;;;;;1999.90;999.90;;;26.10;92.10;;;;;;5031552;28;20501;-75
2022/07/24 08:40:36;;;;;;;1999.90;999.90;;;26.30;92.00;;;;;;5013632;28;20502;-70
2022/07/24 08:43:03;;;;;;;1999.90;999.90;;;26.40;92.10;;;;;;5013698;28;20448;-75
2022/07/24 08:45:33;;;;;;;1999.90;999.90;;;26.40;91.70;;;;;;5013605;28;20842;-72
2022/07/24 08:48:03;;;;;;;1999.90;999.90;;;26.60;91.70;;;;;;5032004;28;20469;-74
2022/07/24 08:50:30;;;;;;;1999.90;999.90;;;26.80;90.90;;;;;;5013190;28;20956;-75
2022/07/24 08:52:58;;;;;;;1999.90;999.90;;;26.40;91.40;;;;;;5012747;28;20448;-75
2022/07/24 08:55:25;;;;;;;1999.90;999.90;;;26.20;92.00;;;;;;5012459;28;20487;-75
2022/07/24 08:57:53;;;;;;;1999.90;999.90;;;26.70;91.10;;;;;;5030564;28;20467;-75
2022/07/24 09:00:21;;;;;;;1999.90;999.90;;;26.50;90.90;;;;;;5013110;28;20455;-75
2022/07/24 09:02:47;;;;;;;1999.90;999.90;;;26.10;91.00;;;;;;5012631;28;20508;-74
2022/07/24 09:05:16;;;;;;;1999.90;999.90;;;25.20;93.40;;;;;;5012984;28;20480;-74
2022/07/24 09:07:42;;;;;;;1999.90;999.90;;;25.30;92.90;;;;;;5029986;28;20463;-75
2022/07/24 09:10:11;;;;;;;1999.90;999.90;;;26.10;93.00;;;;;;5015355;28;20452;-73
2022/07/24 09:12:41;;;;;;;1999.90;999.90;;;26.10;92.70;;;;;;5013907;28;20448;-75
2022/07/24 09:15:15;;;;;;;1999.90;999.90;;;26.30;91.80;;;;;;5013789;28;20957;-75
2022/07/24 09:17:52;;;;;;;1999.90;999.90;;;26.80;91.10;;;;;;5029656;28;20467;-76
2022/07/24 09:20:21;;;;;;;1999.90;999.90;;;27.00;91.10;;;;;;5014235;28;20494;-75
2022/07/24 09:22:47;;;;;;;1999.90;999.90;;;27.30;90.50;;;;;;5013835;28;20728;-75
2022/07/24 09:25:16;;;;;;;1999.90;999.90;;;27.50;90.50;;;;;;5013446;28;20515;-74
2022/07/24 09:27:47;;;;;;;1999.90;999.90;;;27.60;88.60;;;;;;5029263;28;20563;-75
2022/07/24 09:30:23;;;;;;;1999.90;999.90;;;27.80;87.50;;;;;;5013265;28;20441;-77
2022/07/24 09:32:54;;;;;;;1999.90;999.90;;;28.00;87.20;;;;;;5012734;28;20455;-77
2022/07/24 09:35:30;;;;;;;1999.90;999.90;;;27.70;88.10;;;;;;5012402;28;20843;-77
2022/07/24 09:37:58;;;;;;;1999.90;999.90;;;27.90;87.00;;;;;;5030703;28;20465;-77
2022/07/24 09:40:30;;;;;;;1999.90;999.90;;;28.00;85.50;;;;;;5012736;28;20480;-77
2022/07/24 09:43:13;;;;;;;1999.90;999.90;;;27.80;87.10;;;;;;5012325;28;20421;-76
2022/07/24 09:45:54;;;;;;;1999.90;999.90;;;26.70;88.40;;;;;;5012057;28;20484;-74
2022/07/24 09:48:23;;;;;;;1999.90;999.90;;;27.10;89.50;;;;;;5029127;28;20490;-74
2022/07/24 09:50:55;;;;;;;1999.90;999.90;;;27.50;88.80;;;;;;5012686;28;20447;-73
2022/07/24 09:53:25;;;;;;;1999.90;999.90;;;27.70;89.70;;;;;;5012845;28;20478;-74
2022/07/24 09:55:59;;;;;;;1999.90;999.90;;;27.80;86.20;;;;;;5013616;28;20464;-74
2022/07/24 09:58:27;;;;;;;1999.90;999.90;;;27.80;88.20;;;;;;5030467;28;20513;-74
2022/07/24 10:00:55;;;;;;;1999.90;999.90;;;28.10;86.40;;;;;;5016639;28;20444;-77
2022/07/24 10:03:26;;;;;;;1999.90;999.90;;;28.10;85.70;;;;;;5012779;28;20475;-74
2022/07/24 10:05:58;;;;;;;1999.90;999.90;;;28.20;87.70;;;;;;5013461;28;20481;-74
2022/07/24 10:08:25;;;;;;;1999.90;999.90;;;28.40;84.00;;;;;;5025979;28;20489;-75
2022/07/24 10:10:52;;;;;;;1999.90;999.90;;;28.60;83.20;;;;;;5016889;28;20452;-75
2022/07/24 10:13:19;;;;;;;1999.90;999.90;;;28.80;81.30;;;;;;5012567;28;20533;-75
2022/07/24 10:15:53;;;;;;;1999.90;999.90;;;28.60;79.90;;;;;;5012763;28;20539;-75
2022/07/24 10:18:22;;;;;;;1999.90;999.90;;;27.80;83.60;;;;;;5029297;28;20459;-75
2022/07/24 10:20:49;;;;;;;1999.90;999.90;;;28.20;82.10;;;;;;5013080;28;20837;-74
2022/07/24 10:23:28;;;;;;;1999.90;999.90;;;28.70;80.10;;;;;;5012378;28;20945;-75
2022/07/24 10:26:04;;;;;;;1999.90;999.90;;;28.70;80.30;;;;;;5022151;28;20491;-74
2022/07/24 10:28:41;;;;;;;1999.90;999.90;;;28.70;80.30;;;;;;5024787;28;20501;-76
2022/07/24 10:31:09;;;;;;;1999.90;999.90;;;28.60;82.80;;;;;;5032607;28;20455;-73
2022/07/24 10:33:38;;;;;;;1999.90;999.90;;;28.90;80.00;;;;;;5032578;28;20447;-75
2022/07/24 10:36:15;;;;;;;1999.90;999.90;;;29.10;78.50;;;;;;5031366;28;20541;-75
2022/07/24 10:38:53;;;;;;;1999.90;999.90;;;28.90;78.60;;;;;;5017276;28;20813;-75
2022/07/24 10:41:25;;;;;;;1999.90;999.90;;;28.80;79.60;;;;;;5013041;28;20447;-75
2022/07/24 10:44:17;;;;;;;1999.90;999.90;;;28.60;77.90;;;;;;5012764;28;20447;-74
2022/07/24 10:47:03;;;;;;;1999.90;999.90;;;28.50;79.60;;;;;;5027413;28;20501;-75
2022/07/24 10:49:51;;;;;;;1999.90;999.90;;;28.90;78.80;;;;;;5012729;28;20448;-73
2022/07/24 10:52:27;;;;;;;1999.90;999.90;;;28.70;79.00;;;;;;5012721;28;20428;-74
2022/07/24 10:55:29;;;;;;;1999.90;999.90;;;28.90;77.20;;;;;;5016055;28;20435;-75
2022/07/24 10:57:58;;;;;;;1999.90;999.90;;;28.80;76.00;;;;;;5025431;28;20458;-75
2022/07/24 11:00:27;;;;;;;1999.90;999.90;;;28.50;76.00;;;;;;5030555;28;20908;-75
2022/07/24 11:02:59;;;;;;;1999.90;999.90;;;28.70;76.00;;;;;;5035305;28;20498;-75
2022/07/24 11:05:32;;;;;;;1999.90;999.90;;;28.90;74.00;;;;;;5016102;28;20484;-75
2022/07/24 11:08:33;;;;;;;1999.90;999.90;;;28.90;77.40;;;;;;5015232;28;20462;-75
2022/07/24 11:11:14;;;;;;;1999.90;999.90;;;29.30;76.40;;;;;;5032877;28;20462;-75
2022/07/24 11:13:49;;;;;;;1999.90;999.90;;;29.50;73.00;;;;;;5033417;28;20973;-75
2022/07/24 11:16:41;;;;;;;1999.90;999.90;;;29.50;73.30;;;;;;5024443;28;20460;-74
2022/07/24 11:19:31;;;;;;;1999.90;999.90;;;29.40;74.60;;;;;;5016228;28;20436;-74
2022/07/24 11:22:09;;;;;;;1999.90;999.90;;;29.30;72.70;;;;;;5023434;28;20974;-75
2022/07/24 11:24:40;;;;;;;1999.90;999.90;;;28.80;74.50;;;;;;5030260;28;20476;-74
2022/07/24 11:27:16;;;;;;;1999.90;999.90;;;28.50;74.40;;;;;;5015920;28;20468;-75
2022/07/24 11:29:43;;;;;;;1999.90;999.90;;;28.80;76.30;;;;;;5016040;28;20867;-75
2022/07/24 11:32:14;;;;;;;1999.90;999.90;;;29.20;72.30;;;;;;5015529;28;20447;-74
2022/07/24 11:34:44;;;;;;;1999.90;999.90;;;29.10;71.70;;;;;;5030090;28;20443;-75
2022/07/24 11:37:11;;;;;;;1999.90;999.90;;;29.20;74.00;;;;;;5016142;28;20467;-75
2022/07/24 11:39:40;;;;;;;1999.90;999.90;;;29.70;70.60;;;;;;5015406;28;20796;-74
2022/07/24 11:42:09;;;;;;;1999.90;999.90;;;30.00;68.90;;;;;;5015361;28;20448;-75
2022/07/24 11:44:39;;;;;;;1999.90;999.90;;;30.00;68.50;;;;;;5034620;28;20999;-75
2022/07/24 11:47:10;;;;;;;1999.90;999.90;;;30.00;68.90;;;;;;5017063;28;20583;-75
2022/07/24 11:49:42;;;;;;;1999.90;999.90;;;29.90;68.50;;;;;;5015274;28;20459;-75
2022/07/24 11:52:13;;;;;;;1999.90;999.90;;;29.90;69.30;;;;;;5015267;28;20866;-75
2022/07/24 11:54:41;;;;;;;1999.90;999.90;;;30.00;67.00;;;;;;5019047;28;20538;-75
2022/07/24 11:57:17;;;;;;;1999.90;999.90;;;29.50;67.70;;;;;;5032606;28;20884;-75
2022/07/24 11:59:43;;;;;;;1999.90;999.90;;;29.70;67.40;;;;;;5015145;28;20476;-75
2022/07/24 12:02:11;;;;;;;1999.90;999.90;;;29.80;67.80;;;;;;5015147;28;20456;-75
2022/07/24 12:04:40;;;;;;;1999.90;999.90;;;29.70;65.70;;;;;;5015058;28;20460;-75